sensor_id;sensor_type;location;lat;lon;timestamp;temperature;humidity
27200;DHT22;14714;48.106;11.546;2023-05-16T00:01:01;10.80;99.90
27200;DHT22;14714;48.106;11.546;2023-05-16T00:03:30;10.90;99.90
27200;DHT22;14714;48.106;11.546;2023-05-16T00:05:59;10.90;99.90
27200;DHT22;14714;48.106;11.546;2023-05-16T00:08:30;10.80;99.90
27200;DHT22;14714;48.106;11.546;2023-05-16T00:10:59;10.90;99.90
27200;DHT22;14714;48.106;11.546;2023-05-16T00:13:29;10.80;99.90
27200;DHT22;14714;48.106;11.546;2023-05-16T00:15:58;10.80;99.90
27200;DHT22;14714;48.106;11.546;2023-05-16T00:18:29;10.80;99.90
27200;DHT22;14714;48.106;11.546;2023-05-16T00:20:58;10.80;99.90
27200;DHT22;14714;48.106;11.546;2023-05-16T00:23:27;10.80;99.90
27200;DHT22;14714;48.106;11.546;2023-05-16T00:25:58;10.70;99.90
27200;DHT22;14714;48.106;11.546;2023-05-16T00:28:27;10.70;99.90
27200;DHT22;14714;48.106;11.546;2023-05-16T00:30:59;10.70;99.90
27200;DHT22;14714;48.106;11.546;2023-05-16T00:33:27;10.70;99.90
27200;DHT22;14714;48.106;11.546;2023-05-16T00:35:55;10.70;99.90
27200;DHT22;14714;48.106;11.546;2023-05-16T00:38:26;10.70;99.90
27200;DHT22;14714;48.106;11.546;2023-05-16T00:40:54;10.70;99.90
27200;DHT22;14714;48.106;11.546;2023-05-16T00:43:22;10.70;99.90
27200;DHT22;14714;48.106;11.546;2023-05-16T00:45:52;10.70;99.90
27200;DHT22;14714;48.106;11.546;2023-05-16T00:48:22;10.70;99.90
27200;DHT22;14714;48.106;11.546;2023-05-16T00:50:52;10.70;99.90
27200;DHT22;14714;48.106;11.546;2023-05-16T00:53:21;10.70;99.90
27200;DHT22;14714;48.106;11.546;2023-05-16T00:55:51;10.70;99.90
27200;DHT22;14714;48.106;11.546;2023-05-16T00:58:21;10.70;99.90
27200;DHT22;14714;48.106;11.546;2023-05-16T01:00:51;10.70;99.90
27200;DHT22;14714;48.106;11.546;2023-05-16T01:03:25;10.70;99.90
27200;DHT22;14714;48.106;11.546;2023-05-16T01:05:55;10.70;99.90
27200;DHT22;14714;48.106;11.546;2023-05-16T01:08:26;10.70;99.90
27200;DHT22;14714;48.106;11.546;2023-05-16T01:11:01;10.70;99.90
27200;DHT22;14714;48.106;11.546;2023-05-16T01:13:54;10.70;99.90
27200;DHT22;14714;48.106;11.546;2023-05-16T01:22:16;10.70;99.90
27200;DHT22;14714;48.106;11.546;2023-05-16T01:27:38;10.70;99.90
27200;DHT22;14714;48.106;11.546;2023-05-16T01:30:17;10.70;99.90
27200;DHT22;14714;48.106;11.546;2023-05-16T01:32:46;10.70;99.90
27200;DHT22;14714;48.106;11.546;2023-05-16T01:35:18;10.60;99.90
27200;DHT22;14714;48.106;11.546;2023-05-16T01:38:14;10.70;99.90
27200;DHT22;14714;48.106;11.546;2023-05-16T01:41:26;10.60;99.90
27200;DHT22;14714;48.106;11.546;2023-05-16T01:44:04;10.60;99.90
27200;DHT22;14714;48.106;11.546;2023-05-16T01:46:40;10.60;99.90
27200;DHT22;14714;48.106;11.546;2023-05-16T01:50:25;10.60;99.90
27200;DHT22;14714;48.106;11.546;2023-05-16T01:52:40;10.60;99.90
27200;DHT22;14714;48.106;11.546;2023-05-16T01:55:15;10.60;99.90
27200;DHT22;14714;48.106;11.546;2023-05-16T01:57:44;10.60;99.90
27200;DHT22;14714;48.106;11.546;2023-05-16T02:00:14;10.50;99.90
27200;DHT22;14714;48.106;11.546;2023-05-16T02:02:45;10.50;99.90
27200;DHT22;14714;48.106;11.546;2023-05-16T02:05:16;10.50;99.90
27200;DHT22;14714;48.106;11.546;2023-05-16T02:07:47;10.50;99.90
27200;DHT22;14714;48.106;11.546;2023-05-16T02:10:17;10.50;99.90
27200;DHT22;14714;48.106;11.546;2023-05-16T02:12:49;10.50;99.90
27200;DHT22;14714;48.106;11.546;2023-05-16T02:15:18;10.50;99.90
27200;DHT22;14714;48.106;11.546;2023-05-16T02:17:48;10.40;99.90
27200;DHT22;14714;48.106;11.546;2023-05-16T02:20:18;10.40;99.90
27200;DHT22;14714;48.106;11.546;2023-05-16T02:22:48;10.50;99.90
27200;DHT22;14714;48.106;11.546;2023-05-16T02:25:20;10.50;99.90
27200;DHT22;14714;48.106;11.546;2023-05-16T02:27:50;10.40;99.90
27200;DHT22;14714;48.106;11.546;2023-05-16T02:30:21;10.50;99.90
27200;DHT22;14714;48.106;11.546;2023-05-16T02:32:51;10.50;99.90
27200;DHT22;14714;48.106;11.546;2023-05-16T02:35:22;10.50;99.90
27200;DHT22;14714;48.106;11.546;2023-05-16T02:37:52;10.50;99.90
27200;DHT22;14714;48.106;11.546;2023-05-16T02:40:21;10.50;99.90
27200;DHT22;14714;48.106;11.546;2023-05-16T02:42:51;10.50;99.90
27200;DHT22;14714;48.106;11.546;2023-05-16T02:45:22;10.40;99.90
27200;DHT22;14714;48.106;11.546;2023-05-16T02:47:53;10.40;99.90
27200;DHT22;14714;48.106;11.546;2023-05-16T02:50:23;10.40;99.90
27200;DHT22;14714;48.106;11.546;2023-05-16T02:52:52;10.40;99.90
27200;DHT22;14714;48.106;11.546;2023-05-16T02:55:22;10.40;99.90
27200;DHT22;14714;48.106;11.546;2023-05-16T02:57:55;10.40;99.90
27200;DHT22;14714;48.106;11.546;2023-05-16T03:00:29;10.40;99.90
27200;DHT22;14714;48.106;11.546;2023-05-16T03:03:00;10.40;99.90
27200;DHT22;14714;48.106;11.546;2023-05-16T03:05:29;10.40;99.90
27200;DHT22;14714;48.106;11.546;2023-05-16T03:08:00;10.40;99.90
27200;DHT22;14714;48.106;11.546;2023-05-16T03:10:29;10.40;99.90
27200;DHT22;14714;48.106;11.546;2023-05-16T03:13:00;10.40;99.90
27200;DHT22;14714;48.106;11.546;2023-05-16T03:15:29;10.40;99.90
27200;DHT22;14714;48.106;11.546;2023-05-16T03:17:58;10.30;99.90
27200;DHT22;14714;48.106;11.546;2023-05-16T03:20:29;10.30;99.90
27200;DHT22;14714;48.106;11.546;2023-05-16T03:22:57;10.30;99.90
27200;DHT22;14714;48.106;11.546;2023-05-16T03:25:27;10.30;99.90
27200;DHT22;14714;48.106;11.546;2023-05-16T03:27:57;10.30;99.90
27200;DHT22;14714;48.106;11.546;2023-05-16T03:30:25;10.30;99.90
27200;DHT22;14714;48.106;11.546;2023-05-16T03:32:54;10.30;99.90
27200;DHT22;14714;48.106;11.546;2023-05-16T03:35:23;10.20;99.90
27200;DHT22;14714;48.106;11.546;2023-05-16T03:37:54;10.20;99.90
27200;DHT22;14714;48.106;11.546;2023-05-16T03:40:26;10.30;99.90
27200;DHT22;14714;48.106;11.546;2023-05-16T03:42:56;10.20;99.90
27200;DHT22;14714;48.106;11.546;2023-05-16T03:45:25;10.20;99.90
27200;DHT22;14714;48.106;11.546;2023-05-16T03:47:58;10.20;99.90
27200;DHT22;14714;48.106;11.546;2023-05-16T03:50:27;10.20;99.90
27200;DHT22;14714;48.106;11.546;2023-05-16T03:52:56;10.20;99.90
27200;DHT22;14714;48.106;11.546;2023-05-16T03:55:28;10.20;99.90
27200;DHT22;14714;48.106;11.546;2023-05-16T03:57:58;10.20;99.90
27200;DHT22;14714;48.106;11.546;2023-05-16T04:00:31;10.20;99.90
27200;DHT22;14714;48.106;11.546;2023-05-16T04:03:01;10.20;99.90
27200;DHT22;14714;48.106;11.546;2023-05-16T04:05:31;10.20;99.90
27200;DHT22;14714;48.106;11.546;2023-05-16T04:08:05;10.20;99.90
27200;DHT22;14714;48.106;11.546;2023-05-16T04:10:35;10.20;99.90
27200;DHT22;14714;48.106;11.546;2023-05-16T04:13:07;10.20;99.90
27200;DHT22;14714;48.106;11.546;2023-05-16T04:15:36;10.30;99.90
27200;DHT22;14714;48.106;11.546;2023-05-16T04:18:07;10.20;99.90
27200;DHT22;14714;48.106;11.546;2023-05-16T04:20:41;10.30;99.90
27200;DHT22;14714;48.106;11.546;2023-05-16T04:23:12;10.30;99.90
27200;DHT22;14714;48.106;11.546;2023-05-16T04:25:42;10.30;99.90
27200;DHT22;14714;48.106;11.546;2023-05-16T04:28:13;10.30;99.90
27200;DHT22;14714;48.106;11.546;2023-05-16T04:30:43;10.30;99.90
27200;DHT22;14714;48.106;11.546;2023-05-16T04:33:13;10.30;99.90
27200;DHT22;14714;48.106;11.546;2023-05-16T04:35:44;10.30;99.90
27200;DHT22;14714;48.106;11.546;2023-05-16T04:38:13;10.40;99.90
27200;DHT22;14714;48.106;11.546;2023-05-16T04:40:42;10.40;99.90
27200;DHT22;14714;48.106;11.546;2023-05-16T04:43:13;10.50;99.90
27200;DHT22;14714;48.106;11.546;2023-05-16T04:45:44;10.50;99.90
27200;DHT22;14714;48.106;11.546;2023-05-16T04:48:14;10.50;99.90
27200;DHT22;14714;48.106;11.546;2023-05-16T04:50:46;10.50;99.90
27200;DHT22;14714;48.106;11.546;2023-05-16T04:53:30;10.60;99.90
27200;DHT22;14714;48.106;11.546;2023-05-16T04:56:04;10.60;99.90
27200;DHT22;14714;48.106;11.546;2023-05-16T04:58:36;10.70;99.90
27200;DHT22;14714;48.106;11.546;2023-05-16T05:01:09;10.70;99.90
27200;DHT22;14714;48.106;11.546;2023-05-16T05:03:38;10.80;99.90
27200;DHT22;14714;48.106;11.546;2023-05-16T05:06:08;10.80;99.90
27200;DHT22;14714;48.106;11.546;2023-05-16T05:08:37;10.80;99.90
27200;DHT22;14714;48.106;11.546;2023-05-16T05:11:31;10.90;99.90
27200;DHT22;14714;48.106;11.546;2023-05-16T05:14:00;10.90;99.90
27200;DHT22;14714;48.106;11.546;2023-05-16T05:16:33;11.00;99.90
27200;DHT22;14714;48.106;11.546;2023-05-16T05:19:04;11.00;99.90
27200;DHT22;14714;48.106;11.546;2023-05-16T05:21:37;11.00;99.90
27200;DHT22;14714;48.106;11.546;2023-05-16T05:24:07;11.00;99.90
27200;DHT22;14714;48.106;11.546;2023-05-16T05:26:36;11.00;99.90
27200;DHT22;14714;48.106;11.546;2023-05-16T05:29:07;11.10;99.90
27200;DHT22;14714;48.106;11.546;2023-05-16T05:31:37;11.10;99.90
27200;DHT22;14714;48.106;11.546;2023-05-16T05:34:06;11.10;99.90
27200;DHT22;14714;48.106;11.546;2023-05-16T05:36:35;11.10;99.90
27200;DHT22;14714;48.106;11.546;2023-05-16T05:39:10;11.10;99.90
27200;DHT22;14714;48.106;11.546;2023-05-16T05:41:45;11.00;99.90
27200;DHT22;14714;48.106;11.546;2023-05-16T05:44:14;11.00;99.90
27200;DHT22;14714;48.106;11.546;2023-05-16T05:46:47;11.00;99.90
27200;DHT22;14714;48.106;11.546;2023-05-16T05:49:15;11.00;99.90
27200;DHT22;14714;48.106;11.546;2023-05-16T05:51:44;11.00;99.90
27200;DHT22;14714;48.106;11.546;2023-05-16T05:54:13;11.00;99.90
27200;DHT22;14714;48.106;11.546;2023-05-16T05:56:41;11.10;99.90
27200;DHT22;14714;48.106;11.546;2023-05-16T05:59:11;11.10;99.90
27200;DHT22;14714;48.106;11.546;2023-05-16T06:01:39;11.10;99.90
27200;DHT22;14714;48.106;11.546;2023-05-16T06:04:09;11.20;99.90
27200;DHT22;14714;48.106;11.546;2023-05-16T06:06:38;11.30;99.90
27200;DHT22;14714;48.106;11.546;2023-05-16T06:09:07;11.40;99.90
27200;DHT22;14714;48.106;11.546;2023-05-16T06:11:36;11.40;99.90
27200;DHT22;14714;48.106;11.546;2023-05-16T06:14:06;11.50;99.90
27200;DHT22;14714;48.106;11.546;2023-05-16T06:16:35;11.60;99.90
27200;DHT22;14714;48.106;11.546;2023-05-16T06:19:06;11.70;99.90
27200;DHT22;14714;48.106;11.546;2023-05-16T06:21:36;11.70;99.90
27200;DHT22;14714;48.106;11.546;2023-05-16T06:24:04;11.80;99.90
27200;DHT22;14714;48.106;11.546;2023-05-16T06:26:34;11.90;99.90
27200;DHT22;14714;48.106;11.546;2023-05-16T06:29:02;11.90;99.90
27200;DHT22;14714;48.106;11.546;2023-05-16T06:31:31;12.00;99.90
27200;DHT22;14714;48.106;11.546;2023-05-16T06:34:00;12.10;99.90
27200;DHT22;14714;48.106;11.546;2023-05-16T06:36:29;12.20;99.90
27200;DHT22;14714;48.106;11.546;2023-05-16T06:38:58;12.30;99.90
27200;DHT22;14714;48.106;11.546;2023-05-16T06:41:28;12.50;99.90
27200;DHT22;14714;48.106;11.546;2023-05-16T06:43:59;12.60;99.90
27200;DHT22;14714;48.106;11.546;2023-05-16T06:46:28;12.80;99.90
27200;DHT22;14714;48.106;11.546;2023-05-16T06:48:56;13.00;99.90
27200;DHT22;14714;48.106;11.546;2023-05-16T06:51:25;13.10;99.90
27200;DHT22;14714;48.106;11.546;2023-05-16T06:53:56;13.10;99.90
27200;DHT22;14714;48.106;11.546;2023-05-16T06:56:25;13.20;99.90
27200;DHT22;14714;48.106;11.546;2023-05-16T06:58:55;13.20;99.90
27200;DHT22;14714;48.106;11.546;2023-05-16T07:01:30;13.30;99.90
27200;DHT22;14714;48.106;11.546;2023-05-16T07:04:02;13.30;99.90
27200;DHT22;14714;48.106;11.546;2023-05-16T07:06:33;13.30;99.90
27200;DHT22;14714;48.106;11.546;2023-05-16T07:09:06;13.20;99.90
27200;DHT22;14714;48.106;11.546;2023-05-16T07:11:39;13.20;99.90
27200;DHT22;14714;48.106;11.546;2023-05-16T07:14:19;13.00;99.90
27200;DHT22;14714;48.106;11.546;2023-05-16T07:16:59;13.00;99.90
27200;DHT22;14714;48.106;11.546;2023-05-16T07:19:32;13.00;99.90
27200;DHT22;14714;48.106;11.546;2023-05-16T07:22:30;13.00;99.90
27200;DHT22;14714;48.106;11.546;2023-05-16T07:25:26;13.00;99.90
27200;DHT22;14714;48.106;11.546;2023-05-16T07:28:01;13.00;99.90
27200;DHT22;14714;48.106;11.546;2023-05-16T07:30:43;13.00;99.90
27200;DHT22;14714;48.106;11.546;2023-05-16T07:33:18;13.10;99.90
27200;DHT22;14714;48.106;11.546;2023-05-16T07:35:55;13.10;99.90
27200;DHT22;14714;48.106;11.546;2023-05-16T07:38:43;13.00;99.90
27200;DHT22;14714;48.106;11.546;2023-05-16T07:41:13;12.90;99.90
27200;DHT22;14714;48.106;11.546;2023-05-16T07:43:45;12.80;99.90
27200;DHT22;14714;48.106;11.546;2023-05-16T07:46:19;12.70;99.90
27200;DHT22;14714;48.106;11.546;2023-05-16T07:49:12;12.70;99.90
27200;DHT22;14714;48.106;11.546;2023-05-16T07:51:42;12.60;99.90
27200;DHT22;14714;48.106;11.546;2023-05-16T07:54:24;12.50;99.90
27200;DHT22;14714;48.106;11.546;2023-05-16T07:56:56;12.50;99.90
27200;DHT22;14714;48.106;11.546;2023-05-16T07:59:30;12.40;99.90
27200;DHT22;14714;48.106;11.546;2023-05-16T08:01:59;12.40;99.90
27200;DHT22;14714;48.106;11.546;2023-05-16T08:04:32;12.30;99.90
27200;DHT22;14714;48.106;11.546;2023-05-16T08:07:16;12.30;99.90
27200;DHT22;14714;48.106;11.546;2023-05-16T08:10:06;12.20;99.90
27200;DHT22;14714;48.106;11.546;2023-05-16T10:21:27;15.80;99.90
27200;DHT22;14714;48.106;11.546;2023-05-16T10:24:06;15.70;99.90
27200;DHT22;14714;48.106;11.546;2023-05-16T10:30:09;15.30;99.90
27200;DHT22;14714;48.106;11.546;2023-05-16T10:32:36;15.10;99.90
27200;DHT22;14714;48.106;11.546;2023-05-16T10:35:07;15.00;99.90
27200;DHT22;14714;48.106;11.546;2023-05-16T10:37:49;14.90;99.90
27200;DHT22;14714;48.106;11.546;2023-05-16T10:40:33;14.90;99.90
27200;DHT22;14714;48.106;11.546;2023-05-16T10:43:06;14.80;99.90
27200;DHT22;14714;48.106;11.546;2023-05-16T10:45:41;14.70;99.90
27200;DHT22;14714;48.106;11.546;2023-05-16T10:48:11;14.60;99.90
27200;DHT22;14714;48.106;11.546;2023-05-16T10:50:45;14.40;99.90
27200;DHT22;14714;48.106;11.546;2023-05-16T10:58:39;14.00;99.90
27200;DHT22;14714;48.106;11.546;2023-05-16T11:01:44;14.00;99.90
27200;DHT22;14714;48.106;11.546;2023-05-16T11:04:44;13.90;99.90
27200;DHT22;14714;48.106;11.546;2023-05-16T11:07:23;13.90;99.90
27200;DHT22;14714;48.106;11.546;2023-05-16T11:12:49;13.80;99.90
27200;DHT22;14714;48.106;11.546;2023-05-16T11:15:27;13.80;99.90
27200;DHT22;14714;48.106;11.546;2023-05-16T11:18:15;13.80;99.90
27200;DHT22;14714;48.106;11.546;2023-05-16T11:20:50;13.80;99.90
27200;DHT22;14714;48.106;11.546;2023-05-16T11:23:21;13.90;99.90
27200;DHT22;14714;48.106;11.546;2023-05-16T11:25:57;13.80;99.90
27200;DHT22;14714;48.106;11.546;2023-05-16T11:28:27;13.80;99.90
27200;DHT22;14714;48.106;11.546;2023-05-16T11:31:00;13.60;99.90
27200;DHT22;14714;48.106;11.546;2023-05-16T11:33:48;13.50;99.90
27200;DHT22;14714;48.106;11.546;2023-05-16T11:36:24;13.50;99.90
27200;DHT22;14714;48.106;11.546;2023-05-16T11:39:33;13.40;99.90
27200;DHT22;14714;48.106;11.546;2023-05-16T11:42:44;13.40;99.90
27200;DHT22;14714;48.106;11.546;2023-05-16T11:45:22;13.30;99.90
27200;DHT22;14714;48.106;11.546;2023-05-16T11:48:02;13.30;99.90
27200;DHT22;14714;48.106;11.546;2023-05-16T11:51:02;13.30;99.90
27200;DHT22;14714;48.106;11.546;2023-05-16T11:53:42;13.40;99.90
27200;DHT22;14714;48.106;11.546;2023-05-16T11:56:17;13.50;99.90
27200;DHT22;14714;48.106;11.546;2023-05-16T11:58:50;13.70;99.90
27200;DHT22;14714;48.106;11.546;2023-05-16T12:01:20;13.90;99.90
27200;DHT22;14714;48.106;11.546;2023-05-16T12:03:58;14.00;99.90
27200;DHT22;14714;48.106;11.546;2023-05-16T12:06:27;14.10;99.90
27200;DHT22;14714;48.106;11.546;2023-05-16T12:09:00;14.10;99.90
27200;DHT22;14714;48.106;11.546;2023-05-16T12:11:38;14.10;99.90
27200;DHT22;14714;48.106;11.546;2023-05-16T12:14:07;14.20;99.90
27200;DHT22;14714;48.106;11.546;2023-05-16T12:16:39;14.30;99.90
27200;DHT22;14714;48.106;11.546;2023-05-16T12:19:10;14.40;99.90
27200;DHT22;14714;48.106;11.546;2023-05-16T12:21:39;14.40;99.90
27200;DHT22;14714;48.106;11.546;2023-05-16T12:24:10;14.50;99.90
27200;DHT22;14714;48.106;11.546;2023-05-16T12:26:39;14.70;99.90
27200;DHT22;14714;48.106;11.546;2023-05-16T12:29:10;14.80;99.90
27200;DHT22;14714;48.106;11.546;2023-05-16T12:31:41;14.90;99.90
27200;DHT22;14714;48.106;11.546;2023-05-16T12:34:16;15.10;99.90
27200;DHT22;14714;48.106;11.546;2023-05-16T12:36:52;15.30;99.90
27200;DHT22;14714;48.106;11.546;2023-05-16T12:39:21;15.50;99.90
27200;DHT22;14714;48.106;11.546;2023-05-16T12:41:53;15.80;99.90
27200;DHT22;14714;48.106;11.546;2023-05-16T12:44:29;16.00;99.90
27200;DHT22;14714;48.106;11.546;2023-05-16T12:47:03;16.40;99.90
27200;DHT22;14714;48.106;11.546;2023-05-16T12:49:51;16.60;99.90
27200;DHT22;14714;48.106;11.546;2023-05-16T12:52:23;16.80;99.90
27200;DHT22;14714;48.106;11.546;2023-05-16T12:54:55;17.00;99.90
27200;DHT22;14714;48.106;11.546;2023-05-16T12:57:29;17.10;99.90
27200;DHT22;14714;48.106;11.546;2023-05-16T13:00:02;17.10;99.90
27200;DHT22;14714;48.106;11.546;2023-05-16T13:02:32;17.00;99.90
27200;DHT22;14714;48.106;11.546;2023-05-16T13:05:03;16.80;99.90
27200;DHT22;14714;48.106;11.546;2023-05-16T13:07:35;16.70;99.90
27200;DHT22;14714;48.106;11.546;2023-05-16T13:10:11;16.50;99.90
27200;DHT22;14714;48.106;11.546;2023-05-16T13:12:40;16.40;99.90
27200;DHT22;14714;48.106;11.546;2023-05-16T13:15:15;16.40;99.90
27200;DHT22;14714;48.106;11.546;2023-05-16T13:17:46;16.40;99.90
27200;DHT22;14714;48.106;11.546;2023-05-16T13:20:16;16.60;99.90
27200;DHT22;14714;48.106;11.546;2023-05-16T13:22:47;16.70;99.90
27200;DHT22;14714;48.106;11.546;2023-05-16T13:25:16;16.90;99.90
27200;DHT22;14714;48.106;11.546;2023-05-16T13:27:47;17.10;99.90
27200;DHT22;14714;48.106;11.546;2023-05-16T13:30:17;17.10;99.90
27200;DHT22;14714;48.106;11.546;2023-05-16T13:32:47;17.00;99.90
27200;DHT22;14714;48.106;11.546;2023-05-16T13:35:20;16.80;99.90
27200;DHT22;14714;48.106;11.546;2023-05-16T13:37:55;16.60;99.90
27200;DHT22;14714;48.106;11.546;2023-05-16T13:40:27;16.40;99.90
27200;DHT22;14714;48.106;11.546;2023-05-16T13:42:56;16.10;99.90
27200;DHT22;14714;48.106;11.546;2023-05-16T13:45:31;15.70;99.90
27200;DHT22;14714;48.106;11.546;2023-05-16T13:48:04;15.30;99.90
27200;DHT22;14714;48.106;11.546;2023-05-16T13:50:36;14.70;99.90
27200;DHT22;14714;48.106;11.546;2023-05-16T13:53:10;14.10;99.90
27200;DHT22;14714;48.106;11.546;2023-05-16T13:55:40;13.60;99.90
27200;DHT22;14714;48.106;11.546;2023-05-16T13:58:13;12.80;99.90
27200;DHT22;14714;48.106;11.546;2023-05-16T14:00:46;12.30;99.90
27200;DHT22;14714;48.106;11.546;2023-05-16T14:03:55;12.00;99.90
27200;DHT22;14714;48.106;11.546;2023-05-16T14:06:32;11.70;99.90
27200;DHT22;14714;48.106;11.546;2023-05-16T14:09:02;11.60;99.90
27200;DHT22;14714;48.106;11.546;2023-05-16T14:11:32;11.50;99.90
27200;DHT22;14714;48.106;11.546;2023-05-16T14:14:04;11.50;99.90
27200;DHT22;14714;48.106;11.546;2023-05-16T14:16:37;11.50;99.90
27200;DHT22;14714;48.106;11.546;2023-05-16T14:19:15;11.40;99.90
27200;DHT22;14714;48.106;11.546;2023-05-16T14:21:45;11.30;99.90
27200;DHT22;14714;48.106;11.546;2023-05-16T14:24:16;11.20;99.90
27200;DHT22;14714;48.106;11.546;2023-05-16T14:26:47;11.20;99.90
27200;DHT22;14714;48.106;11.546;2023-05-16T14:29:25;11.20;99.90
27200;DHT22;14714;48.106;11.546;2023-05-16T14:32:11;11.20;99.90
27200;DHT22;14714;48.106;11.546;2023-05-16T14:34:45;11.10;99.90
27200;DHT22;14714;48.106;11.546;2023-05-16T14:37:20;11.10;99.90
27200;DHT22;14714;48.106;11.546;2023-05-16T14:39:54;11.10;99.90
27200;DHT22;14714;48.106;11.546;2023-05-16T14:42:45;11.00;99.90
27200;DHT22;14714;48.106;11.546;2023-05-16T14:45:55;11.00;99.90
27200;DHT22;14714;48.106;11.546;2023-05-16T14:48:26;10.90;99.90
27200;DHT22;14714;48.106;11.546;2023-05-16T14:54:46;10.90;99.90
27200;DHT22;14714;48.106;11.546;2023-05-16T14:57:50;10.90;99.90
27200;DHT22;14714;48.106;11.546;2023-05-16T15:03:53;11.00;99.90
27200;DHT22;14714;48.106;11.546;2023-05-16T15:07:02;10.90;99.90
27200;DHT22;14714;48.106;11.546;2023-05-16T15:10:11;10.90;99.90
27200;DHT22;14714;48.106;11.546;2023-05-16T15:14:06;10.80;99.90
27200;DHT22;14714;48.106;11.546;2023-05-16T15:17:47;10.80;99.90
27200;DHT22;14714;48.106;11.546;2023-05-16T15:21:03;10.80;99.90
27200;DHT22;14714;48.106;11.546;2023-05-16T15:24:10;10.80;99.90
27200;DHT22;14714;48.106;11.546;2023-05-16T15:27:15;10.90;99.90
27200;DHT22;14714;48.106;11.546;2023-05-16T15:30:02;10.90;99.90
27200;DHT22;14714;48.106;11.546;2023-05-16T15:33:18;10.90;99.90
27200;DHT22;14714;48.106;11.546;2023-05-16T15:36:53;10.90;99.90
27200;DHT22;14714;48.106;11.546;2023-05-16T15:40:35;10.90;99.90
27200;DHT22;14714;48.106;11.546;2023-05-16T15:44:05;10.90;99.90
27200;DHT22;14714;48.106;11.546;2023-05-16T15:47:38;10.90;99.90
27200;DHT22;14714;48.106;11.546;2023-05-16T15:50:26;10.90;99.90
27200;DHT22;14714;48.106;11.546;2023-05-16T15:52:56;10.90;99.90
27200;DHT22;14714;48.106;11.546;2023-05-16T15:55:29;10.90;99.90
27200;DHT22;14714;48.106;11.546;2023-05-16T15:57:58;10.80;99.90
27200;DHT22;14714;48.106;11.546;2023-05-16T16:00:32;10.80;99.90
27200;DHT22;14714;48.106;11.546;2023-05-16T16:03:02;10.80;99.90
27200;DHT22;14714;48.106;11.546;2023-05-16T16:05:31;10.80;99.90
27200;DHT22;14714;48.106;11.546;2023-05-16T16:08:01;10.80;99.90
27200;DHT22;14714;48.106;11.546;2023-05-16T16:10:30;10.80;99.90
27200;DHT22;14714;48.106;11.546;2023-05-16T16:13:01;10.70;99.90
27200;DHT22;14714;48.106;11.546;2023-05-16T16:15:31;10.80;99.90
27200;DHT22;14714;48.106;11.546;2023-05-16T16:18:05;10.80;99.90
27200;DHT22;14714;48.106;11.546;2023-05-16T16:20:36;10.90;99.90
27200;DHT22;14714;48.106;11.546;2023-05-16T16:23:12;10.90;99.90
27200;DHT22;14714;48.106;11.546;2023-05-16T16:25:55;11.00;99.90
27200;DHT22;14714;48.106;11.546;2023-05-16T16:28:27;11.10;99.90
27200;DHT22;14714;48.106;11.546;2023-05-16T16:30:58;11.10;99.90
27200;DHT22;14714;48.106;11.546;2023-05-16T16:33:32;11.10;99.90
27200;DHT22;14714;48.106;11.546;2023-05-16T16:36:04;11.10;99.90
27200;DHT22;14714;48.106;11.546;2023-05-16T16:38:39;11.10;99.90
27200;DHT22;14714;48.106;11.546;2023-05-16T16:41:19;11.00;99.90
27200;DHT22;14714;48.106;11.546;2023-05-16T16:43:57;11.00;99.90
27200;DHT22;14714;48.106;11.546;2023-05-16T16:46:36;11.00;99.90
27200;DHT22;14714;48.106;11.546;2023-05-16T16:49:20;11.00;99.90
27200;DHT22;14714;48.106;11.546;2023-05-16T16:52:07;11.00;99.90
27200;DHT22;14714;48.106;11.546;2023-05-16T16:55:17;11.00;99.90
27200;DHT22;14714;48.106;11.546;2023-05-16T16:58:13;11.00;99.90
27200;DHT22;14714;48.106;11.546;2023-05-16T17:01:17;11.00;99.90
27200;DHT22;14714;48.106;11.546;2023-05-16T17:05:03;11.00;99.90
27200;DHT22;14714;48.106;11.546;2023-05-16T17:08:09;11.00;99.90
27200;DHT22;14714;48.106;11.546;2023-05-16T17:11:24;11.00;99.90
27200;DHT22;14714;48.106;11.546;2023-05-16T17:14:24;11.00;99.90
27200;DHT22;14714;48.106;11.546;2023-05-16T17:17:57;11.00;99.90
27200;DHT22;14714;48.106;11.546;2023-05-16T17:20:56;10.90;99.90
27200;DHT22;14714;48.106;11.546;2023-05-16T17:24:06;11.00;99.90
27200;DHT22;14714;48.106;11.546;2023-05-16T17:27:29;11.00;99.90
27200;DHT22;14714;48.106;11.546;2023-05-16T17:30:54;11.00;99.90
27200;DHT22;14714;48.106;11.546;2023-05-16T17:34:27;11.00;99.90
27200;DHT22;14714;48.106;11.546;2023-05-16T17:37:49;10.90;99.90
27200;DHT22;14714;48.106;11.546;2023-05-16T17:40:46;11.00;99.90
27200;DHT22;14714;48.106;11.546;2023-05-16T17:44:01;11.00;99.90
27200;DHT22;14714;48.106;11.546;2023-05-16T17:46:41;11.00;99.90
27200;DHT22;14714;48.106;11.546;2023-05-16T17:49:20;11.00;99.90
27200;DHT22;14714;48.106;11.546;2023-05-16T17:51:54;11.00;99.90
27200;DHT22;14714;48.106;11.546;2023-05-16T17:54:23;11.00;99.90
27200;DHT22;14714;48.106;11.546;2023-05-16T17:56:54;11.00;99.90
27200;DHT22;14714;48.106;11.546;2023-05-16T17:59:24;11.00;99.90
27200;DHT22;14714;48.106;11.546;2023-05-16T18:01:56;11.00;99.90
27200;DHT22;14714;48.106;11.546;2023-05-16T18:04:25;10.90;99.90
27200;DHT22;14714;48.106;11.546;2023-05-16T18:06:53;10.90;99.90
27200;DHT22;14714;48.106;11.546;2023-05-16T18:09:23;10.90;99.90
27200;DHT22;14714;48.106;11.546;2023-05-16T18:11:52;10.90;99.90
27200;DHT22;14714;48.106;11.546;2023-05-16T18:14:22;10.90;99.90
27200;DHT22;14714;48.106;11.546;2023-05-16T18:16:55;10.90;99.90
27200;DHT22;14714;48.106;11.546;2023-05-16T18:19:29;10.80;99.90
27200;DHT22;14714;48.106;11.546;2023-05-16T18:21:58;10.80;99.90
27200;DHT22;14714;48.106;11.546;2023-05-16T18:24:27;10.80;99.90
27200;DHT22;14714;48.106;11.546;2023-05-16T18:26:59;10.80;99.90
27200;DHT22;14714;48.106;11.546;2023-05-16T18:29:30;10.70;99.90
27200;DHT22;14714;48.106;11.546;2023-05-16T18:32:02;10.70;99.90
27200;DHT22;14714;48.106;11.546;2023-05-16T18:34:37;10.60;99.90
27200;DHT22;14714;48.106;11.546;2023-05-16T18:37:12;10.60;99.90
27200;DHT22;14714;48.106;11.546;2023-05-16T18:39:45;10.50;99.90
27200;DHT22;14714;48.106;11.546;2023-05-16T18:42:16;10.50;99.90
27200;DHT22;14714;48.106;11.546;2023-05-16T18:44:46;10.50;99.90
27200;DHT22;14714;48.106;11.546;2023-05-16T18:47:16;10.50;99.90
27200;DHT22;14714;48.106;11.546;2023-05-16T18:49:45;10.50;99.90
27200;DHT22;14714;48.106;11.546;2023-05-16T18:52:14;10.50;99.90